Time;durP1;ratioP1;P1;durP2;ratioP2;P2;SDS_P1;SDS_P2;PMS_P1;PMS_P2;Temp;Humidity;BMP_temperature;BMP_pressure;BME280_temperature;BME280_humidity;BME280_pressure;Samples;Min_cycle;Max_cycle;Signal;HPM_P1;HPM_P2
2022/01/04 00:02:04;;;;;;;21.50;10.17;;;;;;;;;;5060714;28;20480;-79
2022/01/04 00:04:30;;;;;;;32.93;12.67;;;;;;;;;;5060107;28;20695;-79
2022/01/04 00:06:57;;;;;;;22.57;9.47;;;;;;;;;;5061853;28;20471;-79
2022/01/04 00:09:23;;;;;;;21.50;10.60;;;;;;;;;;5060501;28;20447;-79
2022/01/04 00:13:21;;;;;;;18.00;9.37;;;;;;;;;;5061573;28;20486;-79
2022/01/04 00:14:44;;;;;;;19.20;8.43;;;;;;;;;;5062884;28;20442;-79
2022/01/04 00:17:11;;;;;;;19.07;9.57;;;;;;;;;;5061269;28;20483;-79
2022/01/04 00:19:37;;;;;;;19.40;10.10;;;;;;;;;;5060583;28;20440;-79
2022/01/04 00:22:06;;;;;;;19.00;10.20;;;;;;;;;;5061307;28;20474;-79
2022/01/04 00:24:32;;;;;;;15.00;9.93;;;;;;;;;;5062626;28;20517;-79
2022/01/04 00:27:00;;;;;;;29.07;12.73;;;;;;;;;;5059989;28;20471;-80
2022/01/04 00:29:26;;;;;;;17.67;10.37;;;;;;;;;;5059221;28;20537;-79
2022/01/04 00:31:52;;;;;;;20.63;9.00;;;;;;;;;;5059950;28;20483;-79
2022/01/04 00:34:18;;;;;;;22.03;10.03;;;;;;;;;;5062033;28;20505;-79
2022/01/04 00:36:44;;;;;;;22.70;11.07;;;;;;;;;;5060553;28;20471;-80
2022/01/04 00:39:11;;;;;;;14.87;9.70;;;;;;;;;;5059908;28;20439;-79
2022/01/04 00:41:38;;;;;;;18.33;10.37;;;;;;;;;;5060387;28;20501;-79
2022/01/04 00:44:06;;;;;;;18.63;10.80;;;;;;;;;;5060232;28;20518;-79
2022/01/04 00:46:32;;;;;;;20.37;11.70;;;;;;;;;;5058410;28;20467;-79
2022/01/04 00:49:10;;;;;;;20.40;12.10;;;;;;;;;;5059928;28;20447;-79
2022/01/04 00:51:36;;;;;;;16.50;10.00;;;;;;;;;;5059671;28;20846;-79
2022/01/04 00:54:03;;;;;;;18.90;10.77;;;;;;;;;;5060058;28;21413;-79
2022/01/04 00:56:29;;;;;;;20.77;10.70;;;;;;;;;;5058565;28;20463;-79
2022/01/04 00:58:55;;;;;;;21.73;11.40;;;;;;;;;;5060686;28;20791;-79
2022/01/04 01:01:23;;;;;;;26.53;12.93;;;;;;;;;;5058787;28;20468;-79
2022/01/04 01:03:49;;;;;;;28.10;12.73;;;;;;;;;;5059458;28;20456;-79
2022/01/04 01:06:17;;;;;;;21.20;12.13;;;;;;;;;;5058180;28;21065;-79
2022/01/04 01:08:43;;;;;;;20.90;11.87;;;;;;;;;;5059471;28;20523;-79
2022/01/04 01:11:10;;;;;;;23.13;11.87;;;;;;;;;;5058452;28;20517;-79
2022/01/04 01:13:36;;;;;;;19.40;11.17;;;;;;;;;;5060317;28;20447;-79
2022/01/04 01:16:02;;;;;;;28.73;13.53;;;;;;;;;;5059349;28;20956;-79
2022/01/04 01:18:30;;;;;;;23.97;13.27;;;;;;;;;;5060208;28;20856;-79
2022/01/04 01:20:56;;;;;;;22.23;11.90;;;;;;;;;;5058735;28;20462;-79
2022/01/04 01:23:23;;;;;;;21.23;12.00;;;;;;;;;;5060450;28;20455;-79
2022/01/04 01:25:49;;;;;;;19.90;12.40;;;;;;;;;;5060147;28;20492;-79
2022/01/04 01:28:16;;;;;;;20.80;12.30;;;;;;;;;;5057622;28;20472;-79
2022/01/04 01:30:43;;;;;;;27.93;13.37;;;;;;;;;;5059480;28;20498;-78
2022/01/04 01:33:10;;;;;;;25.83;12.17;;;;;;;;;;5059795;28;20468;-79
2022/01/04 01:35:38;;;;;;;26.07;13.33;;;;;;;;;;5058890;28;20443;-79
2022/01/04 01:38:05;;;;;;;21.97;13.60;;;;;;;;;;5059707;28;20529;-79
2022/01/04 01:40:31;;;;;;;23.33;12.10;;;;;;;;;;5058820;28;20470;-78
2022/01/04 01:42:58;;;;;;;27.53;14.67;;;;;;;;;;5060561;28;20532;-78
2022/01/04 01:45:24;;;;;;;36.53;13.27;;;;;;;;;;5060162;28;20862;-79
2022/01/04 01:47:51;;;;;;;18.90;13.20;;;;;;;;;;5073946;22;20500;-87
2022/01/04 01:50:18;;;;;;;22.27;13.10;;;;;;;;;;5035790;28;20520;-88
2022/01/04 01:52:47;;;;;;;27.30;12.90;;;;;;;;;;5039885;28;21129;-88
2022/01/04 01:55:14;;;;;;;28.33;13.60;;;;;;;;;;5040528;28;20445;-87
2022/01/04 01:57:40;;;;;;;30.23;13.30;;;;;;;;;;5047537;28;20478;-88
2022/01/04 02:00:08;;;;;;;25.77;13.33;;;;;;;;;;5062109;28;20506;-87
2022/01/04 02:02:34;;;;;;;23.60;13.03;;;;;;;;;;5058870;28;20462;-88
2022/01/04 02:05:00;;;;;;;23.90;13.50;;;;;;;;;;5058348;28;20458;-88
2022/01/04 02:07:27;;;;;;;22.70;13.20;;;;;;;;;;5059531;28;20471;-87
2022/01/04 02:10:02;;;;;;;27.10;13.17;;;;;;;;;;5060441;28;20552;-88
2022/01/04 02:12:29;;;;;;;22.40;13.93;;;;;;;;;;5058922;28;20536;-87
2022/01/04 02:14:55;;;;;;;25.67;15.60;;;;;;;;;;5057975;28;20439;-88
2022/01/04 02:17:22;;;;;;;22.27;13.60;;;;;;;;;;5062457;28;20472;-88
2022/01/04 02:19:49;;;;;;;27.60;16.80;;;;;;;;;;5056254;28;20447;-88
2022/01/04 02:22:15;;;;;;;21.93;14.23;;;;;;;;;;5055029;28;20550;-87
2022/01/04 02:24:42;;;;;;;33.83;16.43;;;;;;;;;;5061925;28;20451;-86
2022/01/04 02:27:08;;;;;;;26.70;16.00;;;;;;;;;;5060757;28;20534;-87
2022/01/04 02:29:34;;;;;;;29.57;15.33;;;;;;;;;;5065866;28;20505;-87
2022/01/04 02:32:01;;;;;;;25.97;14.67;;;;;;;;;;5059779;28;20478;-88
2022/01/04 02:34:27;;;;;;;31.87;15.47;;;;;;;;;;5062749;28;20505;-87
2022/01/04 02:36:54;;;;;;;25.10;13.33;;;;;;;;;;5062731;28;20466;-88
2022/01/04 02:39:21;;;;;;;29.87;15.63;;;;;;;;;;5061507;28;20447;-87
2022/01/04 02:41:47;;;;;;;36.40;16.13;;;;;;;;;;5062625;28;20479;-87
2022/01/04 02:44:13;;;;;;;31.73;14.77;;;;;;;;;;5060576;28;20455;-87
2022/01/04 02:46:39;;;;;;;31.90;15.07;;;;;;;;;;5062447;28;21030;-88
2022/01/04 02:49:06;;;;;;;34.97;16.30;;;;;;;;;;5062945;28;20466;-87
2022/01/04 02:51:32;;;;;;;36.90;16.80;;;;;;;;;;5061717;28;20473;-87
2022/01/04 02:54:00;;;;;;;28.00;14.70;;;;;;;;;;5063643;28;20451;-87
2022/01/04 02:56:26;;;;;;;29.73;15.80;;;;;;;;;;5063598;28;20471;-88
2022/01/04 02:58:53;;;;;;;29.10;16.40;;;;;;;;;;5060556;28;20514;-88
2022/01/04 03:01:19;;;;;;;28.17;15.17;;;;;;;;;;5059482;28;20465;-88
2022/01/04 03:03:45;;;;;;;31.17;15.70;;;;;;;;;;5064714;28;20880;-88
2022/01/04 03:06:13;;;;;;;31.10;15.70;;;;;;;;;;5061878;28;20479;-88
2022/01/04 03:08:39;;;;;;;38.33;17.00;;;;;;;;;;5057345;28;20521;-88
2022/01/04 03:11:08;;;;;;;28.90;16.50;;;;;;;;;;5060875;28;20440;-88
2022/01/04 03:13:34;;;;;;;31.00;14.53;;;;;;;;;;5063169;28;20444;-88
2022/01/04 03:16:01;;;;;;;25.90;15.33;;;;;;;;;;5062126;28;20455;-87
2022/01/04 03:18:27;;;;;;;25.10;15.20;;;;;;;;;;5057559;28;20460;-88
2022/01/04 03:20:53;;;;;;;34.50;17.37;;;;;;;;;;5058605;28;20832;-87
2022/01/04 03:23:19;;;;;;;25.67;15.03;;;;;;;;;;5062871;28;20468;-88
2022/01/04 03:25:46;;;;;;;42.63;17.70;;;;;;;;;;5061455;28;20459;-87
2022/01/04 03:28:16;;;;;;;26.27;16.50;;;;;;;;;;5057631;28;20471;-88
2022/01/04 03:30:42;;;;;;;30.80;17.03;;;;;;;;;;5063112;28;20448;-87
2022/01/04 03:33:08;;;;;;;33.70;16.90;;;;;;;;;;5059184;28;20551;-87
2022/01/04 03:35:35;;;;;;;29.20;16.17;;;;;;;;;;5062328;28;20443;-88
2022/01/04 03:38:01;;;;;;;35.00;18.07;;;;;;;;;;5058873;28;20468;-87
2022/01/04 03:40:28;;;;;;;29.20;15.50;;;;;;;;;;5063026;28;20451;-88
2022/01/04 03:42:54;;;;;;;31.33;18.70;;;;;;;;;;5060250;28;20517;-88
2022/01/04 03:45:21;;;;;;;28.60;16.50;;;;;;;;;;5066119;28;20467;-87
2022/01/04 03:47:48;;;;;;;35.27;18.40;;;;;;;;;;5056400;28;20468;-88
2022/01/04 03:50:14;;;;;;;30.73;16.10;;;;;;;;;;5063255;28;20945;-87
2022/01/04 03:52:40;;;;;;;32.03;17.43;;;;;;;;;;5064285;28;20479;-86
2022/01/04 03:55:07;;;;;;;32.83;18.00;;;;;;;;;;5059605;28;20453;-87
2022/01/04 03:57:33;;;;;;;29.97;16.87;;;;;;;;;;5060452;28;20726;-87
2022/01/04 04:00:00;;;;;;;31.23;17.33;;;;;;;;;;5060727;28;20856;-87
2022/01/04 04:02:27;;;;;;;32.67;18.07;;;;;;;;;;5058397;28;20471;-87
2022/01/04 04:04:54;;;;;;;31.60;18.40;;;;;;;;;;5060904;28;20463;-87
2022/01/04 04:07:20;;;;;;;38.87;18.00;;;;;;;;;;5061859;28;20475;-89
2022/01/04 04:09:46;;;;;;;30.30;18.37;;;;;;;;;;5061888;28;20973;-87
2022/01/04 04:12:14;;;;;;;40.67;18.33;;;;;;;;;;5058516;28;20464;-87
2022/01/04 04:14:40;;;;;;;27.93;18.57;;;;;;;;;;5058543;28;20498;-89
2022/01/04 04:17:06;;;;;;;36.67;20.30;;;;;;;;;;5060738;28;20498;-87
2022/01/04 04:19:34;;;;;;;37.87;19.17;;;;;;;;;;5058258;28;20444;-87
2022/01/04 04:22:00;;;;;;;26.67;17.43;;;;;;;;;;5059401;28;20490;-87
2022/01/04 04:24:26;;;;;;;41.90;20.97;;;;;;;;;;5060065;28;20451;-87
2022/01/04 04:26:52;;;;;;;34.40;19.13;;;;;;;;;;5061223;28;20479;-87
2022/01/04 04:29:19;;;;;;;33.33;17.90;;;;;;;;;;5060784;28;20448;-87
2022/01/04 04:31:45;;;;;;;32.40;18.60;;;;;;;;;;5060734;28;20992;-87
2022/01/04 04:34:11;;;;;;;38.33;20.27;;;;;;;;;;5061785;28;20455;-88
2022/01/04 04:36:39;;;;;;;34.57;19.00;;;;;;;;;;5059071;28;20521;-87
2022/01/04 04:39:05;;;;;;;35.20;18.80;;;;;;;;;;5061277;28;20565;-87
2022/01/04 04:41:31;;;;;;;36.03;20.17;;;;;;;;;;5056783;28;20988;-87
2022/01/04 04:43:58;;;;;;;39.63;19.90;;;;;;;;;;5060376;28;20869;-87
2022/01/04 04:46:24;;;;;;;35.23;19.20;;;;;;;;;;5060279;28;20462;-87
2022/01/04 04:48:50;;;;;;;34.33;19.50;;;;;;;;;;5056976;28;20467;-87
2022/01/04 04:51:16;;;;;;;31.60;18.90;;;;;;;;;;5057907;28;20474;-87
2022/01/04 04:53:44;;;;;;;31.97;19.97;;;;;;;;;;5057533;28;20444;-87
2022/01/04 04:56:10;;;;;;;32.83;19.47;;;;;;;;;;5058536;28;20862;-87
2022/01/04 04:58:37;;;;;;;36.40;21.00;;;;;;;;;;5061496;28;20547;-87
2022/01/04 05:01:03;;;;;;;37.50;21.80;;;;;;;;;;5058472;28;20965;-87
2022/01/04 05:03:29;;;;;;;40.87;21.50;;;;;;;;;;5061050;28;20443;-87
2022/01/04 05:05:55;;;;;;;35.03;20.93;;;;;;;;;;5057434;28;20447;-88
2022/01/04 05:08:22;;;;;;;34.47;21.30;;;;;;;;;;5059705;28;20468;-87
2022/01/04 05:10:49;;;;;;;35.63;20.50;;;;;;;;;;5055726;28;20451;-87
2022/01/04 05:13:15;;;;;;;37.47;19.70;;;;;;;;;;5055369;28;20460;-88
2022/01/04 05:15:42;;;;;;;36.97;19.90;;;;;;;;;;5057450;28;20505;-88
2022/01/04 05:18:09;;;;;;;36.60;20.37;;;;;;;;;;5055271;28;20985;-87
2022/01/04 05:20:35;;;;;;;37.23;19.60;;;;;;;;;;5059966;28;20447;-87
2022/01/04 05:23:01;;;;;;;35.90;20.90;;;;;;;;;;5058239;28;20822;-87
2022/01/04 05:25:28;;;;;;;39.03;19.83;;;;;;;;;;5060934;28;20860;-87
2022/01/04 05:27:55;;;;;;;33.83;20.50;;;;;;;;;;5057535;28;21000;-87
2022/01/04 05:30:21;;;;;;;32.17;19.57;;;;;;;;;;5060283;28;20459;-87
2022/01/04 05:32:48;;;;;;;35.00;20.37;;;;;;;;;;5055658;28;20459;-87
2022/01/04 05:35:14;;;;;;;40.40;21.27;;;;;;;;;;5060418;28;20497;-87
2022/01/04 05:37:40;;;;;;;40.67;21.33;;;;;;;;;;5056483;28;20459;-87
2022/01/04 05:40:07;;;;;;;40.10;20.83;;;;;;;;;;5059406;28;20440;-87
2022/01/04 05:42:33;;;;;;;33.03;21.00;;;;;;;;;;5060491;28;20905;-87
2022/01/04 05:45:01;;;;;;;41.20;21.77;;;;;;;;;;5058273;28;20869;-87
2022/01/04 05:47:27;;;;;;;38.77;19.90;;;;;;;;;;5059559;28;21020;-87
2022/01/04 05:49:54;;;;;;;41.13;21.70;;;;;;;;;;5057844;28;20496;-87
2022/01/04 05:52:20;;;;;;;38.67;21.47;;;;;;;;;;5060599;28;20890;-87
2022/01/04 05:54:49;;;;;;;36.03;18.83;;;;;;;;;;5059294;28;20858;-87
2022/01/04 05:57:15;;;;;;;37.13;20.87;;;;;;;;;;5057272;28;21077;-87
2022/01/04 05:59:41;;;;;;;40.10;20.90;;;;;;;;;;5059943;28;20454;-87
2022/01/04 06:02:09;;;;;;;41.97;19.87;;;;;;;;;;5059855;28;20460;-87
2022/01/04 06:04:35;;;;;;;36.00;21.97;;;;;;;;;;5060042;28;20442;-87
2022/01/04 06:07:01;;;;;;;40.97;20.60;;;;;;;;;;5054215;28;20886;-87
2022/01/04 06:09:39;;;;;;;33.97;19.40;;;;;;;;;;5056577;28;20456;-87
2022/01/04 06:14:50;;;;;;;34.83;19.03;;;;;;;;;;5058672;28;20465;-88
2022/01/04 06:14:51;;;;;;;39.30;22.90;;;;;;;;;;5057725;28;20435;-87
2022/01/04 06:17:19;;;;;;;39.60;20.00;;;;;;;;;;5057437;28;20876;-87
2022/01/04 06:19:45;;;;;;;40.13;21.63;;;;;;;;;;5060595;28;20247;-87
2022/01/04 06:22:12;;;;;;;36.50;20.23;;;;;;;;;;5062052;28;20477;-87
2022/01/04 06:24:38;;;;;;;36.87;20.90;;;;;;;;;;5060409;28;20494;-87
2022/01/04 06:27:08;;;;;;;50.07;20.60;;;;;;;;;;5056428;28;20483;-87
2022/01/04 06:29:35;;;;;;;32.93;20.30;;;;;;;;;;5057207;28;20993;-88
2022/01/04 06:32:01;;;;;;;39.00;20.50;;;;;;;;;;5058009;28;20470;-88
2022/01/04 06:34:28;;;;;;;37.33;19.10;;;;;;;;;;5058559;28;20451;-87
2022/01/04 06:36:55;;;;;;;41.00;18.53;;;;;;;;;;5058291;28;20846;-87
2022/01/04 06:39:21;;;;;;;38.53;20.20;;;;;;;;;;5057742;28;20444;-87
2022/01/04 06:41:47;;;;;;;30.87;20.00;;;;;;;;;;5057922;28;20475;-87
2022/01/04 06:44:13;;;;;;;37.13;20.63;;;;;;;;;;5061683;28;20450;-87
2022/01/04 06:46:45;;;;;;;39.57;21.03;;;;;;;;;;5059058;28;20471;-87
2022/01/04 06:49:11;;;;;;;36.90;19.73;;;;;;;;;;5058230;28;20479;-88
2022/01/04 06:51:39;;;;;;;36.03;20.53;;;;;;;;;;5059324;28;20516;-87
2022/01/04 06:54:06;;;;;;;34.70;21.17;;;;;;;;;;5059686;28;20854;-87
2022/01/04 06:56:32;;;;;;;36.87;19.63;;;;;;;;;;5057885;28;20472;-87
2022/01/04 06:58:58;;;;;;;32.40;19.90;;;;;;;;;;5057685;28;20513;-87
2022/01/04 07:01:25;;;;;;;35.23;20.67;;;;;;;;;;5059358;28;20470;-87
2022/01/04 07:03:51;;;;;;;33.70;19.03;;;;;;;;;;5058178;28;20450;-86
2022/01/04 07:06:18;;;;;;;41.47;20.97;;;;;;;;;;5060479;28;20520;-87
2022/01/04 07:08:45;;;;;;;34.63;19.93;;;;;;;;;;5058060;28;20487;-87
2022/01/04 07:11:11;;;;;;;31.43;20.10;;;;;;;;;;5057354;28;20545;-87
2022/01/04 07:13:38;;;;;;;34.03;19.67;;;;;;;;;;5059808;28;20431;-87
2022/01/04 07:16:04;;;;;;;42.83;22.07;;;;;;;;;;5061791;28;20452;-87
2022/01/04 07:18:31;;;;;;;40.13;19.37;;;;;;;;;;5061828;28;20513;-87
2022/01/04 07:20:57;;;;;;;34.50;19.13;;;;;;;;;;5062814;28;20856;-87
2022/01/04 07:23:23;;;;;;;44.13;20.53;;;;;;;;;;5062197;28;20489;-88
2022/01/04 07:25:51;;;;;;;33.97;19.63;;;;;;;;;;5060973;28;20500;-87
2022/01/04 07:28:17;;;;;;;36.17;20.93;;;;;;;;;;5062778;28;20549;-88
2022/01/04 07:30:44;;;;;;;35.57;20.83;;;;;;;;;;5063260;28;20439;-88
2022/01/04 07:33:10;;;;;;;35.63;19.93;;;;;;;;;;5062049;28;20529;-87
2022/01/04 07:35:36;;;;;;;34.60;19.33;;;;;;;;;;5062345;28;20447;-87
2022/01/04 07:38:03;;;;;;;44.50;21.90;;;;;;;;;;5061059;28;20513;-88
2022/01/04 07:40:29;;;;;;;37.50;21.47;;;;;;;;;;5060246;28;20794;-88
2022/01/04 07:42:59;;;;;;;36.60;19.47;;;;;;;;;;5061218;28;20529;-88
2022/01/04 07:45:26;;;;;;;32.40;21.70;;;;;;;;;;5065480;28;20952;-88
2022/01/04 07:47:52;;;;;;;32.33;19.73;;;;;;;;;;5073268;22;20491;-84
2022/01/04 07:50:19;;;;;;;36.60;21.33;;;;;;;;;;5041861;28;20505;-84
2022/01/04 07:52:45;;;;;;;34.87;19.70;;;;;;;;;;5044502;28;20460;-81
2022/01/04 07:55:11;;;;;;;40.87;22.87;;;;;;;;;;5047965;28;20440;-82
2022/01/04 07:57:39;;;;;;;33.80;20.43;;;;;;;;;;5049191;28;20472;-79
2022/01/04 08:00:07;;;;;;;35.20;19.40;;;;;;;;;;5066708;28;20505;-82
2022/01/04 08:02:33;;;;;;;39.93;20.77;;;;;;;;;;5065577;28;20467;-82
2022/01/04 08:05:00;;;;;;;34.83;21.23;;;;;;;;;;5067275;28;20440;-82
2022/01/04 08:07:26;;;;;;;32.30;20.53;;;;;;;;;;5064758;28;20468;-81
2022/01/04 08:09:52;;;;;;;30.50;19.87;;;;;;;;;;5063557;28;20525;-82
2022/01/04 08:12:19;;;;;;;33.93;20.50;;;;;;;;;;5062159;28;20472;-83
2022/01/04 08:14:45;;;;;;;40.67;21.60;;;;;;;;;;5066108;28;20442;-82
2022/01/04 08:17:13;;;;;;;42.83;20.03;;;;;;;;;;5064909;28;20492;-82
2022/01/04 08:19:39;;;;;;;37.50;20.67;;;;;;;;;;5067221;28;20444;-82
2022/01/04 08:22:06;;;;;;;36.00;19.63;;;;;;;;;;5064711;28;21070;-82
2022/01/04 08:24:32;;;;;;;29.77;18.27;;;;;;;;;;5066466;28;20459;-81
2022/01/04 08:26:58;;;;;;;34.73;20.00;;;;;;;;;;5063906;28;20814;-82
2022/01/04 08:29:24;;;;;;;29.70;19.33;;;;;;;;;;5065562;28;21021;-81
2022/01/04 08:31:51;;;;;;;33.13;19.17;;;;;;;;;;5065649;28;20495;-82
2022/01/04 08:34:18;;;;;;;32.17;18.73;;;;;;;;;;5065253;28;20504;-82
2022/01/04 08:36:45;;;;;;;36.70;19.93;;;;;;;;;;5064486;28;20462;-82
2022/01/04 08:39:14;;;;;;;33.43;19.37;;;;;;;;;;5065600;28;20463;-82
2022/01/04 08:41:41;;;;;;;29.10;18.20;;;;;;;;;;5065400;28;20538;-82
2022/01/04 08:44:07;;;;;;;29.20;19.10;;;;;;;;;;5066105;28;20455;-82
2022/01/04 08:46:35;;;;;;;31.37;16.93;;;;;;;;;;5064351;28;20476;-82
2022/01/04 08:49:02;;;;;;;40.03;19.30;;;;;;;;;;5064686;28;20600;-82
2022/01/04 08:51:29;;;;;;;26.40;16.07;;;;;;;;;;5063739;28;20495;-82
2022/01/04 08:53:56;;;;;;;29.10;18.10;;;;;;;;;;5065132;28;20452;-82
2022/01/04 08:56:22;;;;;;;32.30;19.77;;;;;;;;;;5064296;28;20459;-82
2022/01/04 08:58:48;;;;;;;31.10;19.43;;;;;;;;;;5063824;28;20462;-82
2022/01/04 09:01:15;;;;;;;29.43;17.90;;;;;;;;;;5065774;28;20502;-82
2022/01/04 09:03:41;;;;;;;32.80;19.10;;;;;;;;;;5066428;28;20455;-82
2022/01/04 09:06:08;;;;;;;34.17;19.10;;;;;;;;;;5064296;28;20447;-82
2022/01/04 09:08:36;;;;;;;30.67;19.20;;;;;;;;;;5065242;28;20489;-82
2022/01/04 09:11:03;;;;;;;30.03;17.70;;;;;;;;;;5065513;28;20452;-81
2022/01/04 09:13:34;;;;;;;37.40;20.13;;;;;;;;;;5062483;28;20500;-82
2022/01/04 09:18:46;;;;;;;30.97;19.00;;;;;;;;;;5064683;28;20489;-82
2022/01/04 09:21:12;;;;;;;37.13;18.87;;;;;;;;;;5063526;28;20459;-82
2022/01/04 09:23:40;;;;;;;38.00;19.67;;;;;;;;;;5065930;28;20506;-81
2022/01/04 09:26:07;;;;;;;35.40;19.10;;;;;;;;;;5065251;28;20470;-82
2022/01/04 09:28:33;;;;;;;38.93;22.77;;;;;;;;;;5062380;28;20494;-81
2022/01/04 09:31:00;;;;;;;39.17;21.90;;;;;;;;;;5064641;28;20447;-81
2022/01/04 09:33:26;;;;;;;33.57;20.03;;;;;;;;;;5064368;28;20439;-82
2022/01/04 09:35:53;;;;;;;34.30;21.80;;;;;;;;;;5064205;28;20450;-82
2022/01/04 09:38:20;;;;;;;35.27;21.23;;;;;;;;;;5064502;28;20471;-82
2022/01/04 09:40:49;;;;;;;38.37;20.37;;;;;;;;;;5064762;28;20462;-83
2022/01/04 09:43:16;;;;;;;41.57;23.03;;;;;;;;;;5062184;28;20495;-83
2022/01/04 09:45:42;;;;;;;43.33;21.83;;;;;;;;;;5063356;28;20451;-81
2022/01/04 09:48:08;;;;;;;40.73;22.60;;;;;;;;;;5061268;28;20467;-82
2022/01/04 09:50:36;;;;;;;32.23;20.73;;;;;;;;;;5063830;28;20505;-83
2022/01/04 09:53:04;;;;;;;37.90;21.50;;;;;;;;;;5063655;28;20474;-82
2022/01/04 09:55:30;;;;;;;38.77;19.60;;;;;;;;;;5065162;28;20446;-82
2022/01/04 09:57:58;;;;;;;42.50;22.40;;;;;;;;;;5064158;28;20532;-82
2022/01/04 10:00:24;;;;;;;41.57;23.37;;;;;;;;;;5065128;28;20447;-82
2022/01/04 10:02:51;;;;;;;43.20;22.83;;;;;;;;;;5065597;28;21031;-83
2022/01/04 10:05:18;;;;;;;34.37;21.17;;;;;;;;;;5065484;28;20505;-82
2022/01/04 10:07:45;;;;;;;35.77;20.67;;;;;;;;;;5063993;28;20463;-81
2022/01/04 10:10:13;;;;;;;36.17;20.80;;;;;;;;;;5064948;28;20479;-82
2022/01/04 10:12:48;;;;;;;38.70;20.37;;;;;;;;;;5064769;28;20470;-82
2022/01/04 10:15:28;;;;;;;36.70;21.17;;;;;;;;;;5064261;28;20455;-83
2022/01/04 10:17:54;;;;;;;37.37;21.30;;;;;;;;;;5063886;28;20500;-82
2022/01/04 10:20:21;;;;;;;40.80;23.80;;;;;;;;;;5065074;28;20918;-82
2022/01/04 10:22:47;;;;;;;38.83;21.23;;;;;;;;;;5064484;28;20516;-82
2022/01/04 10:25:16;;;;;;;37.70;21.80;;;;;;;;;;5063326;28;20455;-82
2022/01/04 10:27:43;;;;;;;41.97;22.77;;;;;;;;;;5063620;28;20495;-81
2022/01/04 10:30:11;;;;;;;33.47;19.23;;;;;;;;;;5064431;28;20475;-83
2022/01/04 10:32:44;;;;;;;33.47;19.03;;;;;;;;;;5063470;28;20475;-82
2022/01/04 10:35:10;;;;;;;33.40;19.40;;;;;;;;;;5064703;28;20443;-83
2022/01/04 10:37:39;;;;;;;30.90;18.23;;;;;;;;;;5063813;28;20475;-84
2022/01/04 10:40:06;;;;;;;12.30;7.33;;;;;;;;;;5063618;28;20510;-83
2022/01/04 10:42:32;;;;;;;14.73;8.63;;;;;;;;;;5061540;28;21020;-84
2022/01/04 10:44:59;;;;;;;12.03;8.77;;;;;;;;;;5065991;28;20436;-83
2022/01/04 10:47:25;;;;;;;19.07;8.70;;;;;;;;;;5064078;28;20889;-83
2022/01/04 10:49:53;;;;;;;12.20;6.20;;;;;;;;;;5067168;28;20484;-83
2022/01/04 10:52:31;;;;;;;8.30;4.93;;;;;;;;;;5066850;28;20467;-83
2022/01/04 10:55:11;;;;;;;6.67;4.10;;;;;;;;;;5067587;28;20435;-83
2022/01/04 10:57:37;;;;;;;9.10;3.70;;;;;;;;;;5065868;28;20604;-83
2022/01/04 11:00:12;;;;;;;5.57;3.17;;;;;;;;;;5068099;28;20448;-83
2022/01/04 11:02:39;;;;;;;5.73;3.47;;;;;;;;;;5067053;28;20458;-84
2022/01/04 11:05:13;;;;;;;5.50;2.87;;;;;;;;;;5068789;28;21019;-83
2022/01/04 11:07:54;;;;;;;5.57;2.63;;;;;;;;;;5066242;28;20505;-83
2022/01/04 11:10:20;;;;;;;4.20;2.00;;;;;;;;;;5067656;28;20486;-84
2022/01/04 11:12:47;;;;;;;6.80;2.10;;;;;;;;;;5066986;28;20474;-83
2022/01/04 11:15:13;;;;;;;9.80;2.70;;;;;;;;;;5065808;28;20500;-84
2022/01/04 11:17:39;;;;;;;3.97;2.23;;;;;;;;;;5067882;28;20468;-82
2022/01/04 11:20:06;;;;;;;6.20;1.73;;;;;;;;;;5067416;28;20432;-83
2022/01/04 11:22:34;;;;;;;9.67;2.10;;;;;;;;;;5068379;28;20617;-82
2022/01/04 11:25:02;;;;;;;1.83;1.53;;;;;;;;;;5067014;28;20473;-83
2022/01/04 11:27:30;;;;;;;1.80;1.50;;;;;;;;;;5065114;28;20520;-84
2022/01/04 11:29:58;;;;;;;2.57;2.00;;;;;;;;;;5065933;28;21228;-82
2022/01/04 11:32:26;;;;;;;4.03;1.83;;;;;;;;;;5066428;28;20503;-83
2022/01/04 11:35:02;;;;;;;4.00;1.70;;;;;;;;;;5065315;28;20447;-83
2022/01/04 11:37:28;;;;;;;6.40;2.20;;;;;;;;;;5067521;28;20473;-83
2022/01/04 11:39:57;;;;;;;2.97;2.13;;;;;;;;;;5066574;28;20509;-83
2022/01/04 11:42:38;;;;;;;6.57;2.10;;;;;;;;;;5065616;28;20550;-83
2022/01/04 11:45:06;;;;;;;7.00;2.57;;;;;;;;;;5066267;28;21004;-84
2022/01/04 11:47:33;;;;;;;3.60;1.80;;;;;;;;;;5065812;28;20464;-83
2022/01/04 11:50:11;;;;;;;4.97;2.00;;;;;;;;;;5065778;28;20483;-83
2022/01/04 11:52:38;;;;;;;10.27;3.97;;;;;;;;;;5066902;28;20513;-84
2022/01/04 11:55:21;;;;;;;13.67;3.40;;;;;;;;;;5066525;28;20475;-83
2022/01/04 11:57:48;;;;;;;6.20;3.33;;;;;;;;;;5064039;28;20475;-83
2022/01/04 12:00:23;;;;;;;4.90;3.17;;;;;;;;;;5066976;28;20440;-83
2022/01/04 12:03:01;;;;;;;10.43;3.57;;;;;;;;;;5066217;28;20466;-84
2022/01/04 12:05:27;;;;;;;9.30;4.60;;;;;;;;;;5065494;28;20441;-83
2022/01/04 12:07:54;;;;;;;5.60;3.50;;;;;;;;;;5065176;28;20522;-83
2022/01/04 12:10:35;;;;;;;9.13;3.80;;;;;;;;;;5066452;28;20490;-82
2022/01/04 12:13:02;;;;;;;10.10;4.10;;;;;;;;;;5065103;28;21022;-83
2022/01/04 12:16:02;;;;;;;7.43;4.43;;;;;;;;;;5064915;28;20443;-83
2022/01/04 12:19:01;;;;;;;10.80;3.77;;;;;;;;;;5023385;28;20467;-83
2022/01/04 12:21:38;;;;;;;4.20;3.10;;;;;;;;;;5024376;28;20476;-83
2022/01/04 12:24:05;;;;;;;6.63;2.70;;;;;;;;;;5055040;28;20446;-83
2022/01/04 12:26:33;;;;;;;7.23;2.63;;;;;;;;;;5064239;28;20459;-83
2022/01/04 12:29:17;;;;;;;5.53;3.70;;;;;;;;;;5064962;28;20502;-83
2022/01/04 12:31:46;;;;;;;4.70;2.50;;;;;;;;;;5065889;28;20507;-82
2022/01/04 12:34:25;;;;;;;6.23;2.87;;;;;;;;;;5064464;28;20437;-83
2022/01/04 12:36:52;;;;;;;6.53;2.70;;;;;;;;;;5064580;28;20896;-84
2022/01/04 12:39:20;;;;;;;5.40;3.50;;;;;;;;;;5066339;28;20463;-83
2022/01/04 12:41:50;;;;;;;8.77;3.20;;;;;;;;;;5065952;28;20882;-83
2022/01/04 12:44:21;;;;;;;4.33;3.30;;;;;;;;;;5064388;28;20454;-83
2022/01/04 12:46:48;;;;;;;4.80;2.90;;;;;;;;;;5065917;28;20476;-86
2022/01/04 12:49:15;;;;;;;2.90;1.80;;;;;;;;;;5063782;28;20545;-82
2022/01/04 12:51:44;;;;;;;3.40;1.87;;;;;;;;;;5065373;28;20478;-83
2022/01/04 12:54:10;;;;;;;2.03;1.37;;;;;;;;;;5065485;28;20447;-83
2022/01/04 12:56:40;;;;;;;1.30;1.17;;;;;;;;;;5066656;28;20472;-83
2022/01/04 12:59:08;;;;;;;1.30;1.20;;;;;;;;;;5064963;28;20464;-82
2022/01/04 13:01:34;;;;;;;1.10;1.00;;;;;;;;;;5065288;28;20496;-83
2022/01/04 13:04:01;;;;;;;2.50;1.60;;;;;;;;;;5066023;28;20452;-83
2022/01/04 13:06:27;;;;;;;3.97;1.50;;;;;;;;;;5064209;28;20524;-83
2022/01/04 13:08:55;;;;;;;3.37;1.27;;;;;;;;;;5064088;28;20492;-82
2022/01/04 13:11:21;;;;;;;6.83;1.03;;;;;;;;;;5064704;28;20514;-83
2022/01/04 13:13:53;;;;;;;6.10;1.87;;;;;;;;;;5064800;28;20452;-82
2022/01/04 13:16:21;;;;;;;4.60;1.50;;;;;;;;;;5065871;28;20472;-83
2022/01/04 13:18:48;;;;;;;3.97;1.30;;;;;;;;;;5064939;28;20463;-82
2022/01/04 13:21:14;;;;;;;5.33;1.70;;;;;;;;;;5065381;28;20459;-82
2022/01/04 13:23:41;;;;;;;10.23;2.23;;;;;;;;;;5065606;28;20444;-83
2022/01/04 13:26:09;;;;;;;3.13;1.77;;;;;;;;;;5065591;28;20505;-83
2022/01/04 13:28:35;;;;;;;5.30;1.80;;;;;;;;;;5062879;28;20475;-83
2022/01/04 13:31:02;;;;;;;5.20;2.30;;;;;;;;;;5064548;28;20480;-83
2022/01/04 13:33:29;;;;;;;7.43;2.80;;;;;;;;;;5064599;28;20455;-83
2022/01/04 13:35:57;;;;;;;5.70;1.47;;;;;;;;;;5065326;28;20451;-83
2022/01/04 13:38:24;;;;;;;10.97;2.17;;;;;;;;;;5062980;28;21017;-82
2022/01/04 13:40:52;;;;;;;2.70;2.10;;;;;;;;;;5064734;28;21028;-82
2022/01/04 13:43:19;;;;;;;12.70;3.67;;;;;;;;;;5064674;28;20475;-83
2022/01/04 13:45:47;;;;;;;5.20;2.40;;;;;;;;;;5064598;28;20454;-83
2022/01/04 13:48:14;;;;;;;5.30;1.70;;;;;;;;;;5064044;28;20472;-83
2022/01/04 13:50:43;;;;;;;17.63;2.67;;;;;;;;;;5062205;22;20591;-88
2022/01/04 13:53:14;;;;;;;7.07;2.30;;;;;;;;;;5040820;28;20527;-89
2022/01/04 13:55:48;;;;;;;3.60;2.10;;;;;;;;;;5040012;28;20487;-87
2022/01/04 13:58:29;;;;;;;7.37;1.40;;;;;;;;;;5037068;28;20467;-89
2022/01/04 14:00:55;;;;;;;8.50;1.40;;;;;;;;;;5055319;28;20471;-89
2022/01/04 14:03:28;;;;;;;7.40;1.97;;;;;;;;;;5056152;28;20475;-88
2022/01/04 14:05:56;;;;;;;6.43;1.80;;;;;;;;;;5058510;28;20427;-88
2022/01/04 14:08:23;;;;;;;6.43;1.90;;;;;;;;;;5055077;28;20466;-88
2022/01/04 14:10:53;;;;;;;12.33;2.07;;;;;;;;;;5055219;28;20479;-88
2022/01/04 14:13:29;;;;;;;4.13;1.87;;;;;;;;;;5060313;28;20468;-88
2022/01/04 14:16:05;;;;;;;6.87;2.33;;;;;;;;;;5061225;28;20529;-87
2022/01/04 14:18:31;;;;;;;4.57;1.90;;;;;;;;;;5057004;28;20467;-88
2022/01/04 14:20:59;;;;;;;4.67;2.50;;;;;;;;;;5051971;28;20479;-90
2022/01/04 14:23:35;;;;;;;3.23;1.67;;;;;;;;;;5053766;28;20525;-90
2022/01/04 14:26:02;;;;;;;10.50;2.20;;;;;;;;;;5062936;28;21002;-88
2022/01/04 14:28:28;;;;;;;7.20;1.60;;;;;;;;;;5053369;28;20456;-90
2022/01/04 14:30:55;;;;;;;6.60;1.80;;;;;;;;;;5059173;28;20478;-91